Pataskala, Ohio
Current Conditions -  °F | °C
As of 10:54 PM on Saturday 24 Jan 2015 (Local Time) from KVTA Reporting Station
Overcast Overcast  
Wind Chill: 28°   Ceiling: 2300
Heat Index: 35°   Visibility: 8mi
Dew Point: 30°   Wind: 9mph
Humidity: 82%   Direction: 230°SW
Pressure: 29.75"   Gusts: NA
Location:  40°N, 82.67°W
Report Text: KVTA 250354Z AUTO 23008KT 8SM OVC023 02/M01 A2975 RMK AO2 SLP081 T00171011
Loading
Personal Weather Stations






























Interactive Weather Map New forecast layout! Learn more

10-Day Weather Forecast

Advertisements
Track Severe Weather on mobile